createdAt,value
2018-01-07T00:00:45.784Z,54.30
2018-01-07T00:03:11.996Z,54.31
2018-01-07T00:05:38.228Z,54.24
2018-01-07T00:08:04.442Z,54.23
2018-01-07T00:10:30.993Z,54.25
2018-01-07T00:12:57.256Z,54.34
2018-01-07T00:15:23.457Z,54.33
2018-01-07T00:17:49.645Z,54.33
2018-01-07T00:20:15.904Z,54.32
2018-01-07T00:22:42.122Z,54.30
2018-01-07T00:25:08.353Z,54.28
2018-01-07T00:27:34.617Z,54.27
2018-01-07T00:30:01.092Z,54.29
2018-01-07T00:32:27.326Z,54.33
2018-01-07T00:34:53.561Z,54.33
2018-01-07T00:37:19.744Z,54.34
2018-01-07T00:39:45.921Z,54.35
2018-01-07T00:42:12.192Z,54.36
2018-01-07T00:44:38.697Z,54.34
2018-01-07T00:47:10.858Z,54.28
2018-01-07T00:49:37.144Z,54.32
2018-01-07T00:52:03.628Z,54.34
2018-01-07T00:54:29.835Z,54.39
2018-01-07T00:56:56.105Z,54.36
2018-01-07T00:59:22.309Z,54.36
2018-01-07T01:01:48.847Z,54.36
2018-01-07T01:04:15.382Z,54.37
2018-01-07T01:06:41.913Z,54.37
2018-01-07T01:09:08.320Z,54.37
2018-01-07T01:11:34.557Z,54.40
2018-01-07T01:14:00.769Z,54.44
2018-01-07T01:16:27.006Z,54.44
2018-01-07T01:18:53.431Z,54.42
2018-01-07T01:21:19.660Z,54.42
2018-01-07T01:23:45.871Z,54.44
2018-01-07T01:26:12.143Z,54.40
2018-01-07T01:28:38.373Z,54.40
2018-01-07T01:31:04.594Z,54.35
2018-01-07T01:33:30.842Z,54.37
2018-01-07T01:35:57.263Z,54.38
2018-01-07T01:38:23.470Z,54.43
2018-01-07T01:40:49.758Z,54.40
2018-01-07T01:43:16.048Z,54.36
2018-01-07T01:45:42.489Z,54.38
2018-01-07T01:48:08.716Z,54.40
2018-01-07T01:50:34.897Z,54.36
2018-01-07T01:53:01.085Z,54.36
2018-01-07T01:55:27.316Z,54.41
2018-01-07T01:57:53.516Z,54.42
2018-01-07T02:00:19.738Z,54.41
2018-01-07T02:02:46.259Z,54.37
2018-01-07T02:05:12.499Z,54.42
2018-01-07T02:07:38.726Z,54.45
2018-01-07T02:10:05.051Z,54.48
2018-01-07T02:12:31.294Z,54.51
2018-01-07T02:14:57.586Z,54.54
2018-01-07T02:17:23.839Z,54.50
2018-01-07T02:19:50.086Z,54.46
2018-01-07T02:22:16.325Z,54.51
2018-01-07T02:24:42.586Z,54.56
2018-01-07T02:27:09.088Z,54.54
2018-01-07T02:29:35.724Z,54.54
2018-01-07T02:32:01.987Z,54.57
2018-01-07T02:34:28.224Z,54.54
2018-01-07T02:36:54.421Z,54.52
2018-01-07T02:39:20.706Z,54.50
2018-01-07T02:41:46.951Z,54.50
2018-01-07T02:44:13.392Z,54.52
2018-01-07T02:46:39.654Z,54.52
2018-01-07T02:49:05.834Z,54.52
2018-01-07T02:51:32.019Z,54.50
2018-01-07T02:53:58.266Z,54.50
2018-01-07T02:56:24.736Z,54.55
2018-01-07T02:58:50.906Z,54.58
2018-01-07T03:01:17.136Z,54.59
2018-01-07T03:03:43.311Z,54.60
2018-01-07T03:06:09.534Z,54.61
2018-01-07T03:08:35.771Z,54.57
2018-01-07T03:11:01.983Z,54.56
2018-01-07T03:13:28.208Z,54.52
2018-01-07T03:15:54.502Z,54.50
2018-01-07T03:18:20.727Z,54.49
2018-01-07T03:20:47.058Z,54.49
2018-01-07T03:23:13.342Z,54.46
2018-01-07T03:25:39.556Z,54.49
2018-01-07T03:28:05.765Z,54.48
2018-01-07T03:30:32.051Z,54.47
2018-01-07T03:32:58.240Z,54.46
2018-01-07T03:35:24.461Z,54.44
2018-01-07T03:37:50.701Z,54.44
2018-01-07T03:40:16.913Z,54.45
2018-01-07T03:42:43.138Z,54.47
2018-01-07T03:45:09.429Z,54.52
2018-01-07T03:47:35.649Z,54.50
2018-01-07T03:50:01.831Z,54.50
2018-01-07T03:52:28.082Z,54.54
2018-01-07T03:54:54.305Z,54.49
2018-01-07T03:57:20.489Z,54.51
2018-01-07T03:59:46.725Z,54.55
2018-01-07T04:02:14.133Z,54.52
2018-01-07T04:04:40.357Z,54.52
2018-01-07T04:07:06.644Z,54.52
2018-01-07T04:09:32.830Z,54.46
2018-01-07T04:11:59.037Z,54.44
2018-01-07T04:14:25.289Z,54.49
2018-01-07T04:16:51.604Z,54.47
2018-01-07T04:19:17.826Z,54.52
2018-01-07T04:21:44.194Z,54.56
2018-01-07T04:24:10.438Z,54.59
2018-01-07T04:26:36.615Z,54.63
2018-01-07T04:29:03.120Z,54.61
2018-01-07T04:31:29.333Z,54.60
2018-01-07T04:33:55.814Z,54.60
2018-01-07T04:36:22.104Z,54.63
2018-01-07T04:38:48.342Z,54.54
2018-01-07T04:41:14.910Z,54.53
2018-01-07T04:43:41.194Z,54.53
2018-01-07T04:46:07.419Z,54.53
2018-01-07T04:48:33.598Z,54.53
2018-01-07T04:51:00.232Z,54.55
2018-01-07T04:53:26.453Z,54.58
2018-01-07T04:55:52.683Z,54.61
2018-01-07T04:58:18.969Z,54.64
2018-01-07T05:00:45.443Z,54.64
2018-01-07T05:03:11.661Z,54.57
2018-01-07T05:05:38.214Z,54.54
2018-01-07T05:08:04.443Z,54.51
2018-01-07T05:10:30.649Z,54.53
2018-01-07T05:12:57.204Z,54.53
2018-01-07T05:15:23.412Z,54.51
2018-01-07T05:17:49.597Z,54.53
2018-01-07T05:20:15.840Z,54.58
2018-01-07T05:22:42.054Z,54.58
2018-01-07T05:25:08.313Z,54.59
2018-01-07T05:27:34.874Z,54.64
2018-01-07T05:30:01.098Z,54.65
2018-01-07T05:32:27.265Z,54.61
2018-01-07T05:34:53.774Z,54.64
2018-01-07T05:37:19.996Z,54.61
2018-01-07T05:39:46.229Z,54.56
2018-01-07T05:42:12.510Z,54.49
2018-01-07T05:44:38.738Z,54.47
2018-01-07T05:47:04.922Z,54.46
2018-01-07T05:49:31.441Z,54.41
2018-01-07T05:51:57.632Z,54.38
2018-01-07T05:54:23.820Z,54.41
2018-01-07T05:56:50.069Z,54.52
2018-01-07T05:59:16.297Z,54.55
2018-01-07T06:01:42.524Z,54.61
2018-01-07T06:04:09.126Z,54.66
2018-01-07T06:06:35.367Z,54.64
2018-01-07T06:09:01.536Z,54.63
2018-01-07T06:11:27.788Z,54.63
2018-01-07T06:13:54.237Z,54.61
2018-01-07T06:16:20.410Z,54.62
2018-01-07T06:18:46.690Z,54.60
2018-01-07T06:21:12.872Z,54.57
2018-01-07T06:23:39.157Z,54.55
2018-01-07T06:26:05.397Z,54.61
2018-01-07T06:28:31.572Z,54.59
2018-01-07T06:30:57.794Z,54.56
2018-01-07T06:33:24.082Z,54.49
2018-01-07T06:35:50.260Z,54.46
2018-01-07T06:38:16.474Z,54.48
2018-01-07T06:40:42.703Z,54.45
2018-01-07T06:43:08.896Z,54.46
2018-01-07T06:45:35.087Z,54.44
2018-01-07T06:48:01.637Z,54.44
2018-01-07T06:50:27.807Z,54.47
2018-01-07T06:52:54.002Z,54.50
2018-01-07T06:55:20.278Z,54.51
2018-01-07T06:57:46.482Z,54.46
2018-01-07T07:00:12.652Z,54.40
2018-01-07T07:02:38.915Z,54.45
2018-01-07T07:05:05.442Z,54.51
2018-01-07T07:07:31.646Z,54.53
2018-01-07T07:09:57.875Z,54.57
2018-01-07T07:12:24.085Z,54.56
2018-01-07T07:14:50.496Z,54.56
2018-01-07T07:17:16.714Z,54.55
2018-01-07T07:19:43.188Z,54.50
2018-01-07T07:22:09.418Z,54.51
2018-01-07T07:24:35.724Z,54.46
2018-01-07T07:27:02.037Z,54.45
2018-01-07T07:29:28.251Z,54.37
2018-01-07T07:31:54.873Z,54.41
2018-01-07T07:34:21.068Z,54.43
2018-01-07T07:36:47.258Z,54.42
2018-01-07T07:39:13.865Z,54.48
2018-01-07T07:41:40.073Z,54.52
2018-01-07T07:44:06.294Z,54.50
2018-01-07T07:46:32.553Z,54.47
2018-01-07T07:48:58.782Z,54.50
2018-01-07T07:51:24.971Z,54.43
2018-01-07T07:53:51.535Z,54.43
2018-01-07T07:56:17.744Z,54.48
2018-01-07T07:58:43.958Z,54.46
2018-01-07T08:01:10.203Z,54.41
2018-01-07T08:03:36.403Z,54.34
2018-01-07T08:06:02.631Z,54.34
2018-01-07T08:08:28.918Z,54.41
2018-01-07T08:10:55.174Z,54.43
2018-01-07T08:13:21.415Z,54.39
2018-01-07T08:15:47.699Z,54.34
2018-01-07T08:18:13.899Z,54.38
2018-01-07T08:20:40.089Z,54.41
2018-01-07T08:23:06.331Z,54.38
2018-01-07T08:25:32.808Z,54.36
2018-01-07T08:27:59.001Z,54.35
2018-01-07T08:30:25.571Z,54.29
2018-01-07T08:32:51.765Z,54.29
2018-01-07T08:35:18.342Z,54.33
2018-01-07T08:37:44.622Z,54.34
2018-01-07T08:40:10.815Z,54.37
2018-01-07T08:42:37.006Z,54.37
2018-01-07T08:45:03.248Z,54.38
2018-01-07T08:47:29.482Z,54.32
2018-01-07T08:49:56.019Z,54.28
2018-01-07T08:52:22.277Z,54.20
2018-01-07T08:54:48.506Z,54.20
2018-01-07T08:57:14.720Z,54.21
2018-01-07T08:59:41.056Z,54.18
2018-01-07T09:02:07.287Z,54.10
2018-01-07T09:04:33.473Z,54.10
2018-01-07T09:06:59.763Z,54.12
2018-01-07T09:09:25.959Z,54.11
2018-01-07T09:11:52.160Z,54.09
2018-01-07T09:14:18.438Z,54.10
2018-01-07T09:16:44.643Z,54.12
2018-01-07T09:19:10.808Z,54.10
2018-01-07T09:21:37.069Z,53.92
2018-01-07T09:24:03.314Z,53.47
2018-01-07T09:26:29.546Z,53.33
2018-01-07T09:28:55.800Z,53.21
2018-01-07T09:31:21.989Z,52.83
2018-01-07T09:33:48.169Z,51.72
2018-01-07T09:36:14.419Z,51.26
2018-01-07T09:38:40.659Z,51.90
2018-01-07T09:41:06.864Z,52.69
2018-01-07T09:43:33.158Z,53.15
2018-01-07T09:45:59.407Z,53.48
2018-01-07T09:48:25.858Z,53.58
2018-01-07T09:50:52.163Z,53.63
2018-01-07T09:53:18.410Z,53.67
2018-01-07T09:55:44.588Z,53.64
2018-01-07T09:58:10.833Z,53.62
2018-01-07T10:00:37.057Z,53.61
2018-01-07T10:03:03.279Z,53.59
2018-01-07T10:05:29.528Z,53.58
2018-01-07T10:07:55.831Z,53.52
2018-01-07T10:10:22.067Z,53.52
2018-01-07T10:12:48.573Z,53.49
2018-01-07T10:15:14.760Z,53.46
2018-01-07T10:17:40.949Z,53.42
2018-01-07T10:20:07.461Z,53.37
2018-01-07T10:22:33.697Z,53.30
2018-01-07T10:25:00.249Z,53.20
2018-01-07T10:27:26.538Z,52.94
2018-01-07T10:29:52.774Z,51.37
2018-01-07T10:32:19.336Z,46.76
2018-01-07T10:34:45.617Z,46.17
2018-01-07T10:37:11.817Z,45.13
2018-01-07T10:39:38.030Z,42.09
2018-01-07T10:42:04.293Z,40.72
2018-01-07T10:44:30.499Z,40.90
2018-01-07T10:46:56.713Z,42.72
2018-01-07T10:49:22.993Z,44.34
2018-01-07T10:51:49.183Z,44.26
2018-01-07T10:54:15.403Z,44.90
2018-01-07T10:56:41.686Z,46.16
2018-01-07T10:59:08.265Z,48.23
2018-01-07T11:01:40.516Z,49.82
2018-01-07T11:04:06.771Z,50.80
2018-01-07T11:06:33.419Z,51.38
2018-01-07T11:08:59.933Z,51.59
2018-01-07T11:11:26.572Z,51.73
2018-01-07T11:13:52.773Z,51.78
2018-01-07T11:16:18.988Z,51.92
2018-01-07T11:18:45.466Z,51.98
2018-01-07T11:21:11.670Z,52.09
2018-01-07T11:23:37.882Z,52.14
2018-01-07T11:26:04.178Z,52.25
2018-01-07T11:28:30.640Z,52.33
2018-01-07T11:30:56.836Z,52.45
2018-01-07T11:33:23.185Z,52.55
2018-01-07T11:35:49.678Z,52.66
2018-01-07T11:38:15.867Z,52.74
2018-01-07T11:40:42.147Z,52.79
2018-01-07T11:43:08.388Z,52.83
2018-01-07T11:45:34.891Z,52.85
2018-01-07T11:48:01.184Z,52.87
2018-01-07T11:50:27.411Z,52.91
2018-01-07T11:52:53.654Z,52.92
2018-01-07T11:55:19.909Z,52.95
2018-01-07T11:57:46.134Z,53.01
2018-01-07T12:00:12.335Z,52.99
2018-01-07T12:02:38.627Z,52.92
2018-01-07T12:05:04.836Z,52.97
2018-01-07T12:07:31.020Z,52.99
2018-01-07T12:09:57.529Z,52.96
2018-01-07T12:12:23.744Z,52.95
2018-01-07T12:14:49.979Z,52.95
2018-01-07T12:17:16.234Z,52.98
2018-01-07T12:19:42.475Z,52.96
2018-01-07T12:22:09.029Z,52.91
2018-01-07T12:24:35.338Z,52.91
2018-01-07T12:27:01.651Z,52.87
2018-01-07T12:29:27.868Z,52.75
2018-01-07T12:31:54.165Z,52.59
2018-01-07T12:34:20.783Z,52.44
2018-01-07T12:36:47.002Z,52.36
2018-01-07T12:39:13.239Z,52.32
2018-01-07T12:41:39.432Z,52.31
2018-01-07T12:44:05.709Z,52.28
2018-01-07T12:46:31.971Z,52.30
2018-01-07T12:48:58.218Z,52.36
2018-01-07T12:51:24.405Z,52.42
2018-01-07T12:53:50.628Z,52.40
2018-01-07T12:56:16.814Z,52.42
2018-01-07T12:58:43.034Z,52.44
2018-01-07T13:01:09.338Z,52.45
2018-01-07T13:03:35.566Z,52.42
2018-01-07T13:06:02.055Z,52.39
2018-01-07T13:08:28.347Z,52.34
2018-01-07T13:10:54.569Z,52.31
2018-01-07T13:13:20.790Z,52.29
2018-01-07T13:15:47.064Z,52.29
2018-01-07T13:18:13.305Z,52.19
2018-01-07T13:20:39.734Z,52.13
2018-01-07T13:23:06.036Z,52.07
2018-01-07T13:25:32.598Z,52.06
2018-01-07T13:27:58.827Z,52.03
2018-01-07T13:30:25.119Z,52.02
2018-01-07T13:32:51.343Z,51.99
2018-01-07T13:35:17.567Z,51.94
2018-01-07T13:37:44.150Z,51.88
2018-01-07T13:40:10.347Z,51.84
2018-01-07T13:42:36.517Z,51.82
2018-01-07T13:45:02.831Z,51.76
2018-01-07T13:47:29.041Z,51.77
2018-01-07T13:49:55.465Z,51.74
2018-01-07T13:52:21.764Z,51.72
2018-01-07T13:54:48.180Z,51.70
2018-01-07T13:57:14.375Z,51.68
2018-01-07T13:59:40.668Z,51.68
2018-01-07T14:02:06.914Z,51.70
2018-01-07T14:04:33.224Z,51.70
2018-01-07T14:06:59.541Z,51.73
2018-01-07T14:09:25.756Z,51.76
2018-01-07T14:11:51.978Z,51.77
2018-01-07T14:14:18.233Z,51.78
2018-01-07T14:16:44.552Z,51.80
2018-01-07T14:19:10.795Z,51.81
2018-01-07T14:21:37.069Z,51.86
2018-01-07T14:24:03.266Z,51.88
2018-01-07T14:26:29.462Z,51.91
2018-01-07T14:28:55.758Z,51.91
2018-01-07T14:31:21.952Z,51.95
2018-01-07T14:33:48.188Z,51.99
2018-01-07T14:36:14.460Z,52.05
2018-01-07T14:38:40.685Z,52.12
2018-01-07T14:41:06.931Z,52.21
2018-01-07T14:43:33.193Z,52.35
2018-01-07T14:45:59.417Z,52.45
2018-01-07T14:48:25.656Z,52.59
2018-01-07T14:50:51.909Z,52.64
2018-01-07T14:53:18.132Z,52.63
2018-01-07T14:55:44.331Z,52.61
2018-01-07T14:58:10.587Z,52.59
2018-01-07T15:00:36.817Z,52.67
2018-01-07T15:03:03.025Z,52.77
2018-01-07T15:05:29.319Z,52.82
2018-01-07T15:10:27.194Z,52.89
2018-01-07T15:12:53.474Z,52.98
2018-01-07T15:15:19.652Z,52.99
2018-01-07T15:17:45.830Z,53.04
2018-01-07T15:20:12.128Z,53.10
2018-01-07T15:22:38.369Z,53.17
2018-01-07T15:25:04.943Z,53.20
2018-01-07T15:27:31.184Z,53.28
2018-01-07T15:29:57.437Z,53.36
2018-01-07T15:32:23.972Z,53.42
2018-01-07T15:34:50.234Z,53.41
2018-01-07T15:37:16.678Z,53.44
2018-01-07T15:39:42.910Z,53.45
2018-01-07T15:42:09.468Z,53.46
2018-01-07T15:44:35.672Z,53.51
2018-01-07T15:47:01.919Z,53.56
2018-01-07T15:49:28.205Z,53.62
2018-01-07T15:51:54.643Z,53.65
2018-01-07T15:54:20.903Z,53.71
2018-01-07T15:56:47.208Z,53.69
2018-01-07T15:59:13.399Z,53.69
2018-01-07T16:01:39.663Z,53.67
2018-01-07T16:04:05.924Z,53.64
2018-01-07T16:06:32.163Z,53.64
2018-01-07T16:08:58.367Z,53.66
2018-01-07T16:11:24.663Z,53.65
2018-01-07T16:13:50.891Z,53.69
2018-01-07T16:16:17.078Z,53.71
2018-01-07T16:18:43.707Z,53.70
2018-01-07T16:21:09.939Z,53.68
2018-01-07T16:23:36.182Z,53.71
2018-01-07T16:26:02.437Z,53.75
2018-01-07T16:28:28.641Z,53.80
2018-01-07T16:30:54.901Z,53.83
2018-01-07T16:33:21.188Z,53.86
2018-01-07T16:35:47.411Z,53.86
2018-01-07T16:38:13.613Z,53.91
2018-01-07T16:40:39.876Z,53.97
2018-01-07T16:43:06.074Z,53.97
2018-01-07T16:45:32.272Z,53.95
2018-01-07T16:47:58.531Z,53.96
2018-01-07T16:50:24.746Z,54.02
2018-01-07T16:52:50.980Z,54.05
2018-01-07T16:55:17.229Z,54.11
2018-01-07T16:57:43.446Z,54.06
2018-01-07T17:00:09.879Z,54.04
2018-01-07T17:02:36.138Z,54.01
2018-01-07T17:05:02.369Z,54.00
2018-01-07T17:07:28.583Z,54.01
2018-01-07T17:09:54.815Z,54.05
2018-01-07T17:12:21.104Z,54.09
2018-01-07T17:14:47.330Z,54.11
2018-01-07T17:17:13.638Z,54.09
2018-01-07T17:19:39.857Z,54.11
2018-01-07T17:22:06.073Z,54.17
2018-01-07T17:24:32.306Z,54.19
2018-01-07T17:26:58.499Z,54.20
2018-01-07T17:29:25.038Z,54.23
2018-01-07T17:31:51.678Z,54.16
2018-01-07T17:34:17.946Z,54.21
2018-01-07T17:36:44.179Z,54.16
2018-01-07T17:39:10.472Z,54.16
2018-01-07T17:41:37.099Z,54.11
2018-01-07T17:44:03.310Z,54.10
2018-01-07T17:46:29.606Z,54.13
2018-01-07T17:48:55.806Z,54.12
2018-01-07T17:51:21.996Z,54.15
2018-01-07T17:53:48.259Z,54.19
2018-01-07T17:56:14.753Z,54.14
2018-01-07T17:58:41.027Z,54.15
2018-01-07T18:01:07.309Z,54.19
2018-01-07T18:03:33.519Z,54.18
2018-01-07T18:05:59.777Z,54.14
2018-01-07T18:08:26.072Z,54.15
2018-01-07T18:10:52.327Z,54.20
2018-01-07T18:13:18.546Z,54.20
2018-01-07T18:15:44.829Z,54.20
2018-01-07T18:18:11.021Z,54.22
2018-01-07T18:20:37.209Z,54.28
2018-01-07T18:23:03.469Z,54.25
2018-01-07T18:25:29.734Z,54.28
2018-01-07T18:27:55.954Z,54.30
2018-01-07T18:30:22.240Z,54.31
2018-01-07T18:32:48.595Z,54.34
2018-01-07T18:35:14.780Z,54.36
2018-01-07T18:37:41.075Z,54.36
2018-01-07T18:40:07.295Z,54.34
2018-01-07T18:42:33.502Z,54.32
2018-01-07T18:44:59.744Z,54.36
2018-01-07T18:47:25.982Z,54.36
2018-01-07T18:49:52.206Z,54.37
2018-01-07T18:52:18.440Z,54.36
2018-01-07T18:54:44.743Z,54.38
2018-01-07T18:57:10.959Z,54.44
2018-01-07T18:59:37.421Z,54.45
2018-01-07T19:02:03.672Z,54.44
2018-01-07T19:04:29.894Z,54.39
2018-01-07T19:06:56.096Z,54.38
2018-01-07T19:09:22.398Z,54.39
2018-01-07T19:11:48.635Z,54.38
2018-01-07T19:14:14.860Z,54.39
2018-01-07T19:16:41.147Z,54.39
2018-01-07T19:19:07.355Z,54.36
2018-01-07T19:21:33.578Z,54.36
2018-01-07T19:23:59.861Z,54.34
2018-01-07T19:26:26.049Z,54.36
2018-01-07T19:28:52.245Z,54.37
2018-01-07T19:31:18.548Z,54.37
2018-01-07T19:33:45.084Z,54.34
2018-01-07T19:36:11.318Z,54.37
2018-01-07T19:38:37.622Z,54.37
2018-01-07T19:41:03.855Z,54.36
2018-01-07T19:43:30.087Z,54.37
2018-01-07T19:45:56.381Z,54.38
2018-01-07T19:48:22.631Z,54.33
2018-01-07T19:50:49.078Z,54.35
2018-01-07T19:53:15.329Z,54.38
2018-01-07T19:55:41.777Z,54.36
2018-01-07T19:58:07.974Z,54.39
2018-01-07T20:00:34.276Z,54.34
2018-01-07T20:03:00.519Z,54.34
2018-01-07T20:05:27.121Z,54.30
2018-01-07T20:07:53.373Z,54.32
2018-01-07T20:10:19.556Z,54.36
2018-01-07T20:12:45.790Z,54.38
2018-01-07T20:15:12.336Z,54.34
2018-01-07T20:17:38.557Z,54.35
2018-01-07T20:20:04.751Z,54.34
2018-01-07T20:22:31.335Z,54.34
2018-01-07T20:24:57.867Z,54.36
2018-01-07T20:27:24.295Z,54.37
2018-01-07T20:29:50.782Z,54.37
2018-01-07T20:32:16.980Z,54.42
2018-01-07T20:34:43.246Z,54.39
2018-01-07T20:37:09.529Z,54.43
2018-01-07T20:39:35.791Z,54.46
2018-01-07T20:42:02.050Z,54.42
2018-01-07T20:44:28.326Z,54.41
2018-01-07T20:46:54.517Z,54.39
2018-01-07T20:49:20.777Z,54.43
2018-01-07T20:51:47.044Z,54.39
2018-01-07T20:54:13.279Z,54.38
2018-01-07T20:56:39.489Z,54.39
2018-01-07T20:59:05.818Z,54.43
2018-01-07T21:01:32.057Z,54.47
2018-01-07T21:03:58.277Z,54.49
2018-01-07T21:06:24.526Z,54.51
2018-01-07T21:08:50.718Z,54.52
2018-01-07T21:11:17.226Z,54.52
2018-01-07T21:13:43.471Z,54.46
2018-01-07T21:16:09.695Z,54.47
2018-01-07T21:18:36.219Z,54.47
2018-01-07T21:21:02.479Z,54.45
2018-01-07T21:23:28.664Z,54.46
2018-01-07T21:25:54.849Z,54.49
2018-01-07T21:28:21.097Z,54.51
2018-01-07T21:30:47.327Z,54.49
2018-01-07T21:33:13.521Z,54.48
2018-01-07T21:35:39.884Z,54.48
2018-01-07T21:38:06.084Z,54.53
2018-01-07T21:40:32.285Z,54.49
2018-01-07T21:42:58.535Z,54.50
2018-01-07T21:45:24.728Z,54.50
2018-01-07T21:47:50.911Z,54.52
2018-01-07T21:50:17.490Z,54.53
2018-01-07T21:52:43.714Z,54.51
2018-01-07T21:55:09.902Z,54.55
2018-01-07T21:57:36.187Z,54.56
2018-01-07T22:00:14.512Z,54.57
2018-01-07T22:02:43.922Z,54.50
2018-01-07T22:05:17.026Z,54.48
2018-01-07T22:07:43.303Z,54.51
2018-01-07T22:10:09.514Z,54.51
2018-01-07T22:12:35.750Z,54.49
2018-01-07T22:15:02.034Z,54.48
2018-01-07T22:17:28.269Z,54.49
2018-01-07T22:19:54.490Z,54.50
2018-01-07T22:22:20.733Z,54.47
2018-01-07T22:24:47.170Z,54.47
2018-01-07T22:27:13.386Z,54.51
2018-01-07T22:29:39.662Z,54.51
2018-01-07T22:32:05.856Z,54.48
2018-01-07T22:34:32.330Z,54.49
2018-01-07T22:36:58.612Z,54.49
2018-01-07T22:39:24.835Z,54.50
2018-01-07T22:41:51.126Z,54.54
2018-01-07T22:44:17.639Z,54.53
2018-01-07T22:46:43.867Z,54.56
2018-01-07T22:49:10.071Z,54.53
2018-01-07T22:51:36.407Z,54.51
2018-01-07T22:54:02.966Z,54.52
2018-01-07T22:56:29.230Z,54.52
2018-01-07T22:58:55.450Z,54.51
2018-01-07T23:01:21.699Z,54.53
2018-01-07T23:03:47.913Z,54.50
2018-01-07T23:06:14.211Z,54.52
2018-01-07T23:08:40.409Z,54.50
2018-01-07T23:11:06.608Z,54.42
2018-01-07T23:13:32.858Z,54.38
2018-01-07T23:15:59.076Z,54.42
2018-01-07T23:18:25.280Z,54.41
2018-01-07T23:20:51.771Z,54.39
2018-01-07T23:23:18.035Z,54.36
2018-01-07T23:25:44.249Z,54.39
2018-01-07T23:28:10.508Z,54.35
2018-01-07T23:30:36.722Z,54.37
2018-01-07T23:33:02.945Z,54.39
2018-01-07T23:35:29.200Z,54.36
2018-01-07T23:37:55.416Z,54.29
2018-01-07T23:40:21.640Z,54.30
2018-01-07T23:42:47.918Z,54.33
2018-01-07T23:45:14.170Z,54.34
2018-01-07T23:47:40.416Z,54.38
2018-01-07T23:50:06.699Z,54.39
2018-01-07T23:52:32.911Z,54.34
2018-01-07T23:54:59.192Z,54.35
2018-01-07T23:57:25.488Z,54.35
2018-01-07T23:59:51.724Z,54.37
